createdAt,value
2023-03-23T15:59:32.123Z,40.51
2023-03-23T16:03:03.172Z,40.80
2023-03-23T16:06:29.784Z,41.12
2023-03-23T16:09:51.565Z,41.41
2023-03-23T16:13:13.246Z,41.46
2023-03-23T16:16:38.142Z,41.36
2023-03-23T16:19:59.809Z,41.89
2023-03-23T16:23:21.404Z,41.95
2023-03-23T16:26:43.028Z,41.96
2023-03-23T16:30:15.399Z,42.42
2023-03-23T16:33:37.386Z,42.29
2023-03-23T16:37:01.633Z,42.86
2023-03-23T16:40:24.095Z,42.98
2023-03-23T16:43:48.249Z,43.20
2023-03-23T16:47:09.861Z,43.24
2023-03-23T16:50:35.527Z,43.36
2023-03-23T16:53:59.175Z,43.60
2023-03-23T16:57:20.976Z,43.76
2023-03-23T17:00:42.964Z,44.12
2023-03-23T17:04:06.363Z,44.20
2023-03-23T17:07:32.993Z,44.37
2023-03-23T17:10:54.660Z,44.30
2023-03-23T17:14:16.341Z,45.09
2023-03-23T17:17:40.550Z,45.01
2023-03-23T17:21:02.178Z,49.41
2023-03-23T17:24:29.175Z,45.80
2023-03-23T17:27:53.222Z,45.98
2023-03-23T17:31:17.333Z,45.95
2023-03-23T17:34:41.766Z,44.03
2023-03-23T17:38:05.738Z,44.83
2023-03-23T17:41:27.367Z,45.59
2023-03-23T17:44:51.499Z,45.58
2023-03-23T17:48:15.295Z,46.11
2023-03-23T17:51:37.029Z,45.88
2023-03-23T17:54:58.842Z,46.34
2023-03-23T17:58:23.018Z,46.02
2023-03-23T18:01:48.956Z,46.41
2023-03-23T18:05:10.997Z,47.31
2023-03-23T18:08:32.812Z,47.14
2023-03-23T18:11:56.698Z,47.57
2023-03-23T18:15:20.622Z,47.91
2023-03-23T18:18:42.297Z,47.93
2023-03-23T18:22:06.413Z,48.47
2023-03-23T18:25:28.037Z,48.91
2023-03-23T18:28:53.399Z,48.55
2023-03-23T18:32:17.225Z,49.74
2023-03-23T18:35:38.762Z,49.98
2023-03-23T18:39:00.683Z,50.86
2023-03-23T18:42:24.762Z,51.33
2023-03-23T18:45:54.784Z,51.47
2023-03-23T18:49:18.596Z,51.98
2023-03-23T18:52:42.423Z,52.24
2023-03-23T18:56:10.272Z,52.03
2023-03-23T18:59:33.908Z,52.72
2023-03-23T19:02:57.989Z,52.90
2023-03-23T19:06:27.083Z,53.18
2023-03-23T19:09:48.754Z,53.52
2023-03-23T19:13:11.361Z,53.97
2023-03-23T19:16:35.967Z,53.82
2023-03-23T19:23:20.801Z,54.15
2023-03-23T19:26:46.977Z,54.86
2023-03-23T19:30:09.650Z,53.61
2023-03-23T19:33:31.241Z,52.64
2023-03-23T19:37:04.208Z,52.82
2023-03-23T19:43:52.247Z,53.79
2023-03-23T19:47:14.646Z,55.45
2023-03-23T19:50:38.609Z,57.05
2023-03-23T19:54:00.701Z,56.75
2023-03-23T19:57:25.372Z,59.20
2023-03-23T20:00:49.452Z,62.83
2023-03-23T20:04:15.267Z,61.95
2023-03-23T20:07:44.521Z,61.00
2023-03-23T20:11:12.531Z,60.46
2023-03-23T20:14:34.991Z,56.01
2023-03-23T20:17:58.037Z,56.64
2023-03-23T20:21:22.576Z,57.30
2023-03-23T20:24:47.261Z,57.91
2023-03-23T20:28:08.985Z,58.67
2023-03-23T20:31:36.754Z,58.93
2023-03-23T20:35:06.458Z,59.47
2023-03-23T20:38:30.564Z,59.65
2023-03-23T20:41:54.816Z,59.44
2023-03-23T20:45:16.568Z,59.97
2023-03-23T20:48:40.212Z,60.33
2023-03-23T20:52:02.172Z,61.18
2023-03-23T20:55:26.266Z,61.24
2023-03-23T20:58:48.066Z,61.53
2023-03-23T21:02:15.286Z,61.79
2023-03-23T21:05:39.981Z,62.44
2023-03-23T21:09:01.678Z,62.61
2023-03-23T21:12:23.311Z,62.75
2023-03-23T21:15:45.398Z,62.73
2023-03-23T21:19:09.649Z,63.07
2023-03-23T21:22:34.957Z,63.38
2023-03-23T21:26:01.760Z,63.24
2023-03-23T21:29:24.320Z,63.41
2023-03-23T21:32:46.122Z,63.76
2023-03-23T21:36:10.815Z,63.64
2023-03-23T21:39:33.622Z,63.55
2023-03-23T21:42:55.332Z,63.66
2023-03-23T21:46:19.936Z,63.25
2023-03-23T21:49:42.042Z,68.73
2023-03-23T21:53:05.695Z,68.60
2023-03-23T21:56:31.297Z,68.13
2023-03-23T21:59:55.548Z,66.38
2023-03-23T22:03:19.177Z,65.99
2023-03-23T22:06:42.372Z,65.46
2023-03-23T22:10:07.793Z,61.08
2023-03-23T22:13:31.165Z,61.28
2023-03-23T22:16:52.824Z,62.35
2023-03-23T22:20:14.644Z,63.13
2023-03-23T22:23:36.920Z,64.01
2023-03-23T22:26:59.583Z,64.39
2023-03-23T22:30:21.288Z,63.43
2023-03-23T22:33:43.266Z,63.25
2023-03-23T22:37:08.381Z,64.05
2023-03-23T22:40:34.193Z,65.32
2023-03-23T22:44:01.083Z,65.70
2023-03-23T22:47:25.008Z,65.49
2023-03-23T22:50:51.683Z,65.30
2023-03-23T22:54:13.412Z,66.08
2023-03-23T22:57:38.271Z,66.45
2023-03-23T23:01:02.587Z,66.45
2023-03-23T23:04:24.492Z,65.96
2023-03-23T23:07:46.147Z,66.18
2023-03-23T23:11:11.226Z,66.47
2023-03-23T23:14:33.507Z,66.77
2023-03-23T23:17:57.439Z,66.81
2023-03-23T23:21:21.999Z,66.60
2023-03-23T23:24:46.415Z,66.67
2023-03-23T23:28:10.354Z,66.58
2023-03-23T23:31:33.716Z,66.59
2023-03-23T23:34:58.351Z,66.68
2023-03-23T23:38:20.125Z,67.02
2023-03-23T23:41:44.212Z,66.72
2023-03-23T23:45:06.709Z,66.90
2023-03-23T23:48:30.752Z,67.24
2023-03-23T23:51:52.689Z,67.37
2023-03-23T23:55:18.118Z,67.82
2023-03-23T23:58:45.012Z,68.32
